Time;durP1;ratioP1;P1;durP2;ratioP2;P2;SDS_P1;SDS_P2;PMS_P1;PMS_P2;Temp;Humidity;BMP_temperature;BMP_pressure;BME280_temperature;BME280_humidity;BME280_pressure;Samples;Min_cycle;Max_cycle;Signal;HPM_P1;HPM_P2
2023/07/02 00:12:29;;;;;;;;;;;;;;;25.87;46.47;99317.28;41863426;28;19928;-80
2023/07/02 00:32:29;;;;;;;;;;;;;;;25.87;46.38;99315.44;41821894;28;20064;-81
2023/07/02 00:52:30;;;;;;;;;;;;;;;25.85;46.62;99306.00;41838802;28;19933;-80
2023/07/02 01:12:30;;;;;;;;;;;;;;;25.84;46.60;99313.16;41809155;28;19933;-81
2023/07/02 01:32:31;;;;;;;;;;;;;;;25.82;46.24;99319.63;41824589;28;20359;-81
2023/07/02 01:52:33;;;;;;;;;;;;;;;25.81;46.28;99329.41;41821279;28;20105;-81
2023/07/02 02:12:33;;;;;;;;;;;;;;;25.80;46.65;99314.50;41828258;28;19988;-82
2023/07/02 02:32:33;;;;;;;;;;;;;;;25.79;46.46;99306.72;41899639;28;20009;-81
2023/07/02 02:52:34;;;;;;;;;;;;;;;25.77;46.70;99296.28;41872107;28;20377;-81
2023/07/02 03:12:34;;;;;;;;;;;;;;;25.76;46.68;99302.59;41880494;28;20376;-80
2023/07/02 03:32:34;;;;;;;;;;;;;;;25.75;46.61;99303.59;41888435;28;19932;-80
2023/07/02 03:52:34;;;;;;;;;;;;;;;25.73;46.62;99327.63;41904979;28;19932;-82
2023/07/02 04:12:35;;;;;;;;;;;;;;;25.74;46.66;99331.09;41935933;28;19960;-81
2023/07/02 04:32:35;;;;;;;;;;;;;;;25.76;46.58;99341.56;41862465;28;20424;-81
2023/07/02 04:52:36;;;;;;;;;;;;;;;25.77;46.42;99353.78;41851889;28;19936;-81
2023/07/02 05:12:36;;;;;;;;;;;;;;;25.77;46.07;99373.19;41860069;28;19925;-82
2023/07/02 05:32:36;;;;;;;;;;;;;;;25.76;46.14;99384.78;41932717;28;19989;-82
2023/07/02 05:52:38;;;;;;;;;;;;;;;25.78;46.16;99398.72;41924945;28;19924;-82
2023/07/02 06:12:40;;;;;;;;;;;;;;;25.80;46.42;99403.84;41916796;28;19930;-81
2023/07/02 06:32:40;;;;;;;;;;;;;;;25.84;46.37;99421.88;41905945;28;20417;-79
2023/07/02 06:52:41;;;;;;;;;;;;;;;25.86;45.99;99422.50;41867813;28;19962;-82
2023/07/02 07:12:41;;;;;;;;;;;;;;;25.88;46.02;99439.09;41892900;28;19928;-80
2023/07/02 07:32:41;;;;;;;;;;;;;;;25.89;46.03;99446.06;41844180;28;19925;-81
2023/07/02 07:52:44;;;;;;;;;;;;;;;25.91;46.13;99447.72;41837654;28;20321;-81
2023/07/02 08:12:47;;;;;;;;;;;;;;;25.93;46.06;99456.31;41842373;28;19929;-82
2023/07/02 08:32:47;;;;;;;;;;;;;;;25.96;46.30;99485.97;41895795;28;19931;-82
2023/07/02 08:52:47;;;;;;;;;;;;;;;25.99;45.86;99503.38;41905331;28;20396;-83
2023/07/02 09:12:48;;;;;;;;;;;;;;;26.01;45.79;99517.28;41879524;28;19929;-82
2023/07/02 09:32:48;;;;;;;;;;;;;;;26.04;45.86;99522.25;41814007;28;19928;-81
2023/07/02 09:52:49;;;;;;;;;;;;;;;26.07;46.06;99507.84;41814715;28;20298;-82
2023/07/02 10:12:49;;;;;;;;;;;;;;;26.09;45.71;99517.28;41860233;28;19925;-82
2023/07/02 10:32:49;;;;;;;;;;;;;;;26.11;46.02;99501.19;41849995;28;19925;-82
2023/07/02 10:52:52;;;;;;;;;;;;;;;26.15;46.16;99505.16;41847722;28;19979;-82
2023/07/02 11:12:53;;;;;;;;;;;;;;;26.21;46.05;99481.41;41809711;28;19960;-81
2023/07/02 11:32:53;;;;;;;;;;;;;;;26.28;46.04;99478.88;41765603;28;19925;-81
2023/07/02 11:52:54;;;;;;;;;;;;;;;26.37;45.51;99496.41;41777649;28;19924;-84
2023/07/02 12:12:54;;;;;;;;;;;;;;;26.47;45.52;99480.25;41812587;28;20377;-82
2023/07/02 12:32:54;;;;;;;;;;;;;;;26.59;45.30;99477.22;41834002;28;20002;-81
2023/07/02 12:52:55;;;;;;;;;;;;;;;26.67;45.56;99477.13;41831963;28;19931;-81
2023/07/02 13:12:56;;;;;;;;;;;;;;;26.77;45.24;99476.91;41872274;28;19925;-83
2023/07/02 13:32:56;;;;;;;;;;;;;;;26.83;45.13;99470.88;41911695;28;19943;-80
2023/07/02 13:52:57;;;;;;;;;;;;;;;26.96;45.27;99472.94;41890993;28;19935;-82
2023/07/02 14:12:57;;;;;;;;;;;;;;;27.05;44.87;99477.19;41898107;28;20409;-82
2023/07/02 14:32:58;;;;;;;;;;;;;;;27.07;44.77;99482.31;41846634;28;19929;-82
2023/07/02 14:52:58;;;;;;;;;;;;;;;27.04;44.75;99478.19;41848446;28;19936;-82
2023/07/02 15:12:59;;;;;;;;;;;;;;;27.12;44.84;99491.41;41864280;28;19924;-81
2023/07/02 15:32:59;;;;;;;;;;;;;;;27.17;44.89;99490.84;41892899;28;19959;-80
2023/07/02 15:52:59;;;;;;;;;;;;;;;27.23;44.43;99499.94;41918398;28;19959;-81
2023/07/02 16:13:00;;;;;;;;;;;;;;;27.27;44.36;99523.34;41903997;28;20447;-81
2023/07/02 16:33:00;;;;;;;;;;;;;;;27.27;44.37;99541.09;41830263;28;19932;-82
2023/07/02 16:53:00;;;;;;;;;;;;;;;27.25;44.47;99559.06;41808705;28;19932;-82
2023/07/02 17:13:00;;;;;;;;;;;;;;;27.19;44.64;99563.25;41864692;28;19925;-82
2023/07/02 17:33:04;;;;;;;;;;;;;;;27.09;44.97;99568.81;41859024;28;19928;-82
2023/07/02 17:53:04;;;;;;;;;;;;;;;27.00;44.87;99584.00;41819346;28;19925;-81
2023/07/02 18:13:06;;;;;;;;;;;;;;;26.95;44.52;99596.16;41823614;28;19925;-80
2023/07/02 18:33:07;;;;;;;;;;;;;;;26.87;44.52;99626.25;41844984;28;19983;-82
2023/07/02 18:53:07;;;;;;;;;;;;;;;26.83;44.80;99651.50;41852023;28;19978;-81
2023/07/02 19:13:10;;;;;;;;;;;;;;;26.77;44.77;99676.94;41838252;28;20381;-81
2023/07/02 19:33:12;;;;;;;;;;;;;;;26.74;44.77;99703.81;41821344;28;19932;-79
2023/07/02 19:53:15;;;;;;;;;;;;;;;26.72;44.61;99731.53;41827926;28;19929;-81
2023/07/02 20:13:16;;;;;;;;;;;;;;;26.66;44.81;99756.97;41840178;28;22093;-82
2023/07/02 20:33:16;;;;;;;;;;;;;;;26.63;44.96;99762.59;41853294;28;19924;-79
2023/07/02 20:53:17;;;;;;;;;;;;;;;26.59;45.00;99780.72;41842993;28;20445;-83
2023/07/02 21:13:18;;;;;;;;;;;;;;;26.57;44.93;99795.97;41825001;28;20003;-81
2023/07/02 21:33:18;;;;;;;;;;;;;;;26.55;44.82;99827.19;41898064;28;20038;-82
2023/07/02 21:53:18;;;;;;;;;;;;;;;26.52;44.52;99841.63;41895490;28;20400;-82
2023/07/02 22:13:19;;;;;;;;;;;;;;;26.48;44.92;99844.78;41880713;28;19929;-81
2023/07/02 22:33:20;;;;;;;;;;;;;;;26.45;44.79;99864.53;41828186;28;20437;-81
2023/07/02 22:53:20;;;;;;;;;;;;;;;26.42;44.63;99859.53;41836388;28;19932;-82
2023/07/02 23:13:20;;;;;;;;;;;;;;;26.40;45.01;99861.53;41827102;28;19932;-82
2023/07/02 23:33:21;;;;;;;;;;;;;;;26.34;44.88;99871.00;41837577;28;19932;-82
2023/07/02 23:53:21;;;;;;;;;;;;;;;26.33;44.98;99869.34;41832818;28;19932;-81
